createdAt,value
2022-09-23T00:01:18.027Z,3.10
2022-09-23T00:03:46.762Z,3.50
2022-09-23T00:06:16.578Z,3.10
2022-09-23T00:08:44.913Z,3.20
2022-09-23T00:11:14.378Z,3.10
2022-09-23T00:13:44.972Z,3.33
2022-09-23T00:16:14.624Z,3.33
2022-09-23T00:18:44.170Z,3.50
2022-09-23T00:21:14.418Z,3.20
2022-09-23T00:23:43.757Z,3.00
2022-09-23T00:26:13.525Z,3.10
2022-09-23T00:28:41.440Z,3.43
2022-09-23T00:31:11.884Z,3.03
2022-09-23T00:33:40.466Z,3.10
2022-09-23T00:36:12.107Z,3.70
2022-09-23T00:38:39.898Z,3.07
2022-09-23T00:41:07.900Z,3.30
2022-09-23T00:43:41.293Z,3.37
2022-09-23T00:46:11.057Z,2.93
2022-09-23T00:48:42.020Z,3.53
2022-09-23T00:51:14.715Z,3.50
2022-09-23T00:53:43.270Z,3.10
2022-09-23T00:56:13.013Z,3.37
2022-09-23T00:58:43.910Z,3.60
2022-09-23T01:01:13.775Z,3.00
2022-09-23T01:03:42.934Z,3.27
2022-09-23T01:06:12.176Z,3.07
2022-09-23T01:08:40.802Z,3.23
2022-09-23T01:11:20.253Z,3.10
2022-09-23T01:14:03.412Z,3.47
2022-09-23T01:16:37.905Z,2.97
2022-09-23T01:19:19.486Z,2.83
2022-09-23T01:21:58.009Z,3.03
2022-09-23T01:24:52.973Z,3.00
2022-09-23T01:27:42.671Z,3.40
2022-09-23T01:30:19.893Z,3.07
2022-09-23T01:33:00.424Z,3.10
2022-09-23T01:35:39.490Z,3.30
2022-09-23T01:38:21.586Z,3.00
2022-09-23T01:40:54.026Z,3.40
2022-09-23T01:43:28.574Z,3.37
2022-09-23T01:46:00.169Z,2.73
2022-09-23T01:48:33.457Z,3.57
2022-09-23T01:51:06.621Z,2.80
2022-09-23T01:53:40.125Z,3.20
2022-09-23T01:56:13.391Z,3.47
2022-09-23T01:58:46.187Z,2.90
2022-09-23T02:01:22.591Z,4.07
2022-09-23T02:03:56.330Z,2.90
2022-09-23T02:06:28.660Z,3.53
2022-09-23T02:09:00.646Z,3.20
2022-09-23T02:11:29.294Z,3.70
2022-09-23T02:14:00.573Z,3.33
2022-09-23T02:16:34.791Z,3.27
2022-09-23T02:19:08.640Z,3.63
2022-09-23T02:21:40.913Z,3.70
2022-09-23T02:24:14.521Z,3.03
2022-09-23T02:26:48.773Z,3.33
2022-09-23T02:29:21.771Z,2.80
2022-09-23T02:31:58.153Z,2.90
2022-09-23T02:34:35.819Z,3.73
2022-09-23T02:37:12.594Z,3.30
2022-09-23T02:39:51.228Z,3.30
2022-09-23T02:42:24.210Z,3.43
2022-09-23T02:44:52.104Z,3.63
2022-09-23T02:47:24.900Z,3.20
2022-09-23T02:49:56.303Z,3.20
2022-09-23T02:52:24.908Z,2.90
2022-09-23T02:54:53.486Z,3.57
2022-09-23T02:57:21.478Z,3.77
2022-09-23T02:59:50.658Z,3.57
2022-09-23T03:02:43.457Z,2.93
2022-09-23T03:05:23.847Z,3.60
2022-09-23T03:08:06.455Z,3.40
2022-09-23T03:10:41.969Z,3.30
2022-09-23T03:13:18.391Z,3.60
2022-09-23T03:15:52.295Z,3.10
2022-09-23T03:18:25.443Z,2.93
2022-09-23T03:20:59.560Z,3.40
2022-09-23T03:23:32.220Z,3.40
2022-09-23T03:26:04.766Z,3.23
2022-09-23T03:28:33.372Z,3.37
2022-09-23T03:31:01.394Z,3.20
2022-09-23T03:33:29.383Z,3.60
2022-09-23T03:36:22.321Z,3.10
2022-09-23T03:38:54.807Z,3.60
2022-09-23T03:41:29.013Z,3.67
2022-09-23T03:43:58.605Z,3.60
2022-09-23T03:46:28.507Z,3.57
2022-09-23T03:49:03.044Z,3.37
2022-09-23T03:51:32.214Z,3.50
2022-09-23T03:54:00.057Z,3.73
2022-09-23T03:56:27.893Z,3.73
2022-09-23T03:58:55.762Z,4.07
2022-09-23T04:01:23.586Z,3.53
2022-09-23T04:03:53.229Z,4.10
2022-09-23T04:06:21.037Z,3.67
2022-09-23T04:08:50.135Z,3.67
2022-09-23T04:11:17.888Z,3.73
2022-09-23T04:13:45.663Z,4.30
2022-09-23T04:16:13.447Z,4.27
2022-09-23T04:18:41.199Z,4.13
2022-09-23T04:21:08.921Z,4.00
2022-09-23T04:23:36.669Z,4.20
2022-09-23T04:26:07.008Z,4.20
2022-09-23T04:28:35.400Z,4.40
2022-09-23T04:31:05.372Z,4.47
2022-09-23T04:33:33.337Z,4.27
2022-09-23T04:36:01.490Z,4.30
2022-09-23T04:38:29.241Z,4.50
2022-09-23T04:40:56.963Z,4.43
2022-09-23T04:43:26.079Z,3.97
2022-09-23T04:46:01.407Z,4.37
2022-09-23T04:48:29.517Z,3.57
2022-09-23T04:51:03.528Z,3.87
2022-09-23T04:53:31.772Z,4.00
2022-09-23T04:56:02.903Z,4.53
2022-09-23T04:58:31.982Z,4.80
2022-09-23T05:01:04.991Z,5.00
2022-09-23T05:03:35.661Z,4.00
2022-09-23T05:06:03.416Z,4.37
2022-09-23T05:08:31.162Z,4.20
2022-09-23T05:10:59.424Z,4.03
2022-09-23T05:13:27.318Z,4.20
2022-09-23T05:16:01.109Z,4.30
2022-09-23T05:18:29.153Z,3.90
2022-09-23T05:20:57.124Z,4.40
2022-09-23T05:23:25.015Z,4.87
2022-09-23T05:25:59.007Z,4.17
2022-09-23T05:28:29.936Z,4.30
2022-09-23T05:31:04.386Z,4.33
2022-09-23T05:33:32.425Z,4.50
2022-09-23T05:36:00.167Z,4.73
2022-09-23T05:38:28.821Z,4.90
2022-09-23T05:40:57.714Z,5.37
2022-09-23T05:43:26.206Z,5.50
2022-09-23T05:46:04.769Z,5.40
2022-09-23T05:48:38.387Z,5.10
2022-09-23T05:51:09.083Z,6.00
2022-09-23T05:53:38.033Z,6.47
2022-09-23T05:56:06.700Z,5.47
2022-09-23T05:58:34.755Z,5.93
2022-09-23T06:01:02.502Z,5.43
2022-09-23T06:03:30.264Z,5.60
2022-09-23T06:05:59.349Z,5.47
2022-09-23T06:08:27.098Z,5.63
2022-09-23T06:10:54.870Z,5.20
2022-09-23T06:13:22.689Z,5.80
2022-09-23T06:15:50.489Z,5.87
2022-09-23T06:18:18.381Z,5.70
2022-09-23T06:20:46.115Z,5.37
2022-09-23T06:23:15.208Z,5.73
2022-09-23T06:25:42.935Z,5.60
2022-09-23T06:28:12.434Z,6.23
2022-09-23T06:30:40.549Z,6.47
2022-09-23T06:33:08.323Z,6.13
2022-09-23T06:35:36.079Z,6.37
2022-09-23T06:38:05.230Z,5.63
2022-09-23T06:40:34.569Z,6.03
2022-09-23T06:43:03.327Z,5.97
2022-09-23T06:45:31.404Z,6.20
2022-09-23T06:47:59.221Z,6.30
2022-09-23T06:50:28.021Z,6.97
2022-09-23T06:52:56.966Z,7.37
2022-09-23T06:55:27.178Z,7.07
2022-09-23T06:57:58.346Z,6.20
2022-09-23T07:00:26.892Z,6.37
2022-09-23T07:02:55.728Z,6.23
2022-09-23T07:05:23.923Z,7.10
2022-09-23T07:07:52.814Z,6.00
2022-09-23T07:10:21.100Z,6.30
2022-09-23T07:12:48.844Z,6.30
2022-09-23T07:15:18.013Z,6.27
2022-09-23T07:17:45.778Z,5.83
2022-09-23T07:20:13.735Z,5.30
2022-09-23T07:22:41.587Z,6.13
2022-09-23T07:25:11.439Z,5.90
2022-09-23T07:27:39.167Z,5.93
2022-09-23T07:30:16.364Z,7.40
2022-09-23T07:32:50.569Z,5.73
2022-09-23T07:35:18.538Z,5.60
2022-09-23T07:37:47.046Z,5.70
2022-09-23T07:40:14.892Z,7.20
2022-09-23T07:42:42.650Z,5.90
2022-09-23T07:45:10.695Z,11.60
2022-09-23T07:47:39.301Z,6.50
2022-09-23T07:50:10.678Z,6.40
2022-09-23T07:52:38.783Z,6.57
2022-09-23T07:55:07.541Z,5.90
2022-09-23T07:57:35.334Z,5.70
2022-09-23T08:00:03.731Z,6.00
2022-09-23T08:02:31.500Z,5.97
2022-09-23T08:04:59.270Z,5.53
2022-09-23T08:07:28.367Z,5.10
2022-09-23T08:09:56.231Z,6.20
2022-09-23T08:12:23.958Z,5.80
2022-09-23T08:14:51.722Z,5.60
2022-09-23T08:17:19.460Z,5.40
2022-09-23T08:19:47.291Z,5.50
2022-09-23T08:22:16.059Z,4.50
2022-09-23T08:24:45.194Z,6.00
2022-09-23T08:27:12.958Z,5.50
2022-09-23T08:29:40.969Z,6.10
2022-09-23T08:32:08.798Z,6.20
2022-09-23T08:34:36.640Z,6.60
2022-09-23T08:37:04.458Z,6.87
2022-09-23T08:39:32.192Z,7.40
2022-09-23T08:42:13.300Z,6.57
2022-09-23T08:44:48.050Z,7.10
2022-09-23T08:47:20.915Z,6.10
2022-09-23T08:49:56.785Z,6.63
2022-09-23T08:52:30.279Z,5.17
2022-09-23T08:54:58.153Z,5.53
2022-09-23T08:57:38.663Z,5.20
2022-09-23T09:00:07.604Z,4.83
2022-09-23T09:02:37.093Z,5.37
2022-09-23T09:05:09.999Z,5.00
2022-09-23T09:07:42.061Z,4.70
2022-09-23T09:10:18.133Z,4.47
2022-09-23T09:12:50.718Z,4.83
2022-09-23T09:15:24.825Z,4.20
2022-09-23T09:18:01.204Z,4.30
2022-09-23T09:20:39.532Z,4.03
2022-09-23T09:23:20.193Z,4.63
2022-09-23T09:25:50.613Z,4.30
2022-09-23T09:28:23.139Z,4.47
2022-09-23T09:30:54.621Z,4.60
2022-09-23T09:33:28.717Z,4.70
2022-09-23T09:36:09.587Z,5.00
2022-09-23T09:38:37.789Z,4.10
2022-09-23T09:41:14.221Z,4.77
2022-09-23T09:43:48.314Z,4.20
2022-09-23T09:46:27.476Z,4.80
2022-09-23T09:48:59.777Z,4.97
2022-09-23T09:51:29.520Z,5.03
2022-09-23T09:54:20.484Z,5.47
2022-09-23T09:56:49.805Z,4.43
2022-09-23T09:59:23.462Z,4.77
2022-09-23T10:01:57.392Z,4.90
2022-09-23T10:04:36.605Z,4.17
2022-09-23T10:07:07.286Z,4.63
2022-09-23T10:09:37.716Z,4.67
2022-09-23T10:12:15.434Z,3.70
2022-09-23T10:14:44.769Z,3.93
2022-09-23T10:17:18.699Z,3.60
2022-09-23T10:19:49.336Z,3.60
2022-09-23T10:22:26.274Z,3.87
2022-09-23T10:24:55.534Z,3.57
2022-09-23T10:27:32.337Z,3.67
2022-09-23T10:30:03.463Z,3.60
2022-09-23T10:32:33.738Z,3.40
2022-09-23T10:35:13.323Z,3.20
2022-09-23T10:37:42.920Z,3.23
2022-09-23T10:40:48.867Z,3.10
2022-09-23T10:43:57.637Z,2.80
2022-09-23T10:46:39.156Z,3.00
2022-09-23T10:49:38.850Z,3.00
2022-09-23T10:52:22.179Z,3.17
2022-09-23T10:55:05.283Z,2.70
2022-09-23T10:57:47.355Z,3.07
2022-09-23T11:00:25.903Z,2.83
2022-09-23T11:03:19.965Z,2.77
2022-09-23T11:06:01.603Z,2.80
2022-09-23T11:08:44.505Z,3.60
2022-09-23T11:11:22.461Z,3.00
2022-09-23T11:14:06.398Z,2.93
2022-09-23T11:16:48.517Z,3.20
2022-09-23T11:19:48.303Z,2.90
2022-09-23T11:22:36.174Z,3.53
2022-09-23T11:25:30.234Z,2.80
2022-09-23T11:28:17.503Z,2.80
2022-09-23T11:30:53.763Z,3.00
2022-09-23T11:33:38.428Z,2.57
2022-09-23T11:36:11.271Z,2.70
2022-09-23T11:38:43.753Z,2.30
2022-09-23T11:41:19.057Z,2.80
2022-09-23T11:43:52.265Z,3.00
2022-09-23T11:46:29.347Z,3.00
2022-09-23T11:49:04.810Z,3.27
2022-09-23T11:51:41.284Z,2.87
2022-09-23T11:54:20.577Z,2.80
2022-09-23T11:56:52.431Z,2.70
2022-09-23T11:59:39.671Z,2.97
2022-09-23T12:02:20.997Z,3.07
2022-09-23T12:04:58.467Z,4.13
2022-09-23T12:07:35.360Z,2.83
2022-09-23T12:10:05.554Z,2.73
2022-09-23T12:12:41.230Z,3.10
2022-09-23T12:15:21.026Z,3.07
2022-09-23T12:18:23.688Z,3.27
2022-09-23T12:24:24.649Z,2.80
2022-09-23T12:26:56.157Z,2.90
2022-09-23T12:32:00.090Z,2.90
2022-09-23T12:34:31.582Z,3.03
2022-09-23T12:37:03.865Z,3.30
2022-09-23T12:39:37.148Z,3.10
2022-09-23T12:42:08.155Z,3.17
2022-09-23T12:44:41.908Z,3.10
2022-09-23T12:47:31.734Z,3.00
2022-09-23T12:50:00.956Z,4.40
2022-09-23T12:52:30.867Z,3.20
2022-09-23T12:55:41.504Z,2.70
2022-09-23T12:58:38.610Z,3.13
2022-09-23T13:01:19.002Z,3.60
2022-09-23T13:04:04.759Z,3.07
2022-09-23T13:06:42.277Z,3.30
2022-09-23T13:09:16.243Z,3.20
2022-09-23T13:11:48.035Z,3.23
2022-09-23T13:14:25.252Z,3.30
2022-09-23T13:16:58.260Z,3.00
2022-09-23T13:19:46.409Z,2.90
2022-09-23T13:22:14.817Z,2.83
2022-09-23T13:24:48.196Z,3.03
2022-09-23T13:27:22.726Z,2.87
2022-09-23T13:29:56.448Z,2.83
2022-09-23T13:32:29.116Z,2.83
2022-09-23T13:35:00.747Z,2.80
2022-09-23T13:37:38.483Z,3.43
2022-09-23T13:40:17.111Z,3.47
2022-09-23T13:42:50.377Z,2.70
2022-09-23T13:45:20.490Z,2.77
2022-09-23T13:47:50.575Z,2.87
2022-09-23T13:50:20.551Z,2.40
2022-09-23T13:52:53.704Z,3.20
2022-09-23T13:55:30.960Z,3.10
2022-09-23T13:58:05.071Z,2.90
2022-09-23T14:00:38.128Z,2.70
2022-09-23T14:03:18.524Z,2.70
2022-09-23T14:05:47.021Z,3.07
2022-09-23T14:08:14.888Z,3.20
2022-09-23T14:10:45.837Z,2.50
2022-09-23T14:13:25.747Z,3.30
2022-09-23T14:15:56.005Z,3.17
2022-09-23T14:18:30.895Z,2.90
2022-09-23T14:20:58.721Z,3.30
2022-09-23T14:23:26.550Z,2.97
2022-09-23T14:25:55.565Z,2.73
2022-09-23T14:28:27.460Z,3.63
2022-09-23T14:30:57.757Z,3.20
2022-09-23T14:33:28.817Z,2.90
2022-09-23T14:36:03.870Z,2.87
2022-09-23T14:38:49.537Z,3.13
2022-09-23T14:41:21.915Z,3.80
2022-09-23T14:43:55.648Z,3.13
2022-09-23T14:46:25.378Z,3.00
2022-09-23T14:48:56.475Z,2.80
2022-09-23T14:51:44.844Z,3.10
2022-09-23T14:54:37.692Z,3.00
2022-09-23T14:57:26.091Z,3.10
2022-09-23T14:59:57.182Z,2.90
2022-09-23T15:02:38.134Z,3.00
2022-09-23T15:05:20.626Z,3.40
2022-09-23T15:07:51.027Z,3.03
2022-09-23T15:10:23.414Z,3.27
2022-09-23T15:12:53.367Z,2.60
2022-09-23T15:15:27.892Z,3.23
2022-09-23T15:17:55.999Z,2.80
2022-09-23T15:20:26.305Z,3.63
2022-09-23T15:22:55.737Z,2.90
2022-09-23T15:25:29.121Z,3.20
2022-09-23T15:28:03.396Z,3.17
2022-09-23T15:30:32.878Z,3.57
2022-09-23T15:33:00.923Z,3.60
2022-09-23T15:35:31.984Z,4.07
2022-09-23T15:38:02.121Z,3.13
2022-09-23T15:40:31.598Z,3.40
2022-09-23T15:43:01.580Z,3.57
2022-09-23T15:45:34.162Z,3.97
2022-09-23T15:48:07.299Z,4.57
2022-09-23T15:50:35.899Z,4.40
2022-09-23T15:53:04.205Z,3.60
2022-09-23T15:55:33.144Z,3.87
2022-09-23T15:58:01.104Z,3.80
2022-09-23T16:00:29.012Z,3.70
2022-09-23T16:02:58.120Z,3.73
2022-09-23T16:05:30.650Z,4.17
2022-09-23T16:07:58.890Z,3.47
2022-09-23T16:10:27.277Z,3.67
2022-09-23T16:12:57.575Z,4.00
2022-09-23T16:15:26.060Z,3.90
2022-09-23T16:17:55.238Z,3.60
2022-09-23T16:20:26.244Z,3.73
2022-09-23T16:22:58.766Z,3.60
2022-09-23T16:25:29.762Z,4.03
2022-09-23T16:27:58.422Z,3.80
2022-09-23T16:30:27.569Z,3.37
2022-09-23T16:32:55.807Z,3.43
2022-09-23T16:35:26.908Z,3.87
2022-09-23T16:37:55.736Z,3.30
2022-09-23T16:40:25.208Z,4.20
2022-09-23T16:42:54.967Z,3.60
2022-09-23T16:45:23.361Z,4.10
2022-09-23T16:47:52.949Z,3.53
2022-09-23T16:50:24.380Z,3.50
2022-09-23T16:52:54.700Z,3.80
2022-09-23T16:55:24.630Z,3.73
2022-09-23T16:57:53.867Z,4.00
2022-09-23T17:00:39.920Z,3.87
2022-09-23T17:03:25.206Z,3.90
2022-09-23T17:05:55.623Z,4.40
2022-09-23T17:08:23.410Z,4.20
2022-09-23T17:10:58.558Z,3.57
2022-09-23T17:13:26.978Z,3.97
2022-09-23T17:15:55.460Z,4.20
2022-09-23T17:18:23.554Z,5.50
2022-09-23T17:21:00.805Z,6.90
2022-09-23T17:23:28.991Z,6.40
2022-09-23T17:25:56.787Z,6.40
2022-09-23T17:28:24.741Z,6.17
2022-09-23T17:30:57.503Z,5.47
2022-09-23T17:33:25.686Z,5.00
2022-09-23T17:35:54.500Z,5.40
2022-09-23T17:38:28.927Z,5.43
2022-09-23T17:41:01.178Z,5.17
2022-09-23T17:43:30.171Z,5.70
2022-09-23T17:46:05.010Z,4.87
2022-09-23T17:48:33.840Z,5.03
2022-09-23T17:51:03.176Z,5.00
2022-09-23T17:53:34.945Z,5.10
2022-09-23T17:56:04.329Z,5.30
2022-09-23T17:58:34.521Z,6.00
2022-09-23T18:01:02.666Z,6.03
2022-09-23T18:03:32.519Z,5.40
2022-09-23T18:06:11.452Z,6.00
2022-09-23T18:08:41.645Z,5.87
2022-09-23T18:11:14.371Z,5.73
2022-09-23T18:13:42.216Z,5.20
2022-09-23T18:16:10.510Z,6.83
2022-09-23T18:18:38.341Z,5.90
2022-09-23T18:21:07.596Z,5.50
2022-09-23T18:23:36.839Z,5.83
2022-09-23T18:26:13.432Z,6.17
2022-09-23T18:28:41.193Z,5.70
2022-09-23T18:31:09.205Z,6.60
2022-09-23T18:33:37.926Z,6.00
2022-09-23T18:36:06.872Z,5.83
2022-09-23T18:38:35.230Z,6.50
2022-09-23T18:41:03.066Z,6.40
2022-09-23T18:43:39.350Z,6.40
2022-09-23T18:46:12.619Z,7.70
2022-09-23T18:48:58.251Z,11.70
2022-09-23T18:51:29.035Z,11.80
2022-09-23T18:53:58.544Z,9.23
2022-09-23T18:56:29.631Z,8.70
2022-09-23T18:58:59.036Z,7.20
2022-09-23T19:01:27.181Z,7.30
2022-09-23T19:03:56.288Z,7.30
2022-09-23T19:06:24.872Z,6.70
2022-09-23T19:08:54.344Z,7.17
2022-09-23T19:11:23.743Z,8.57
2022-09-23T19:13:55.396Z,7.87
2022-09-23T19:16:25.649Z,9.17
2022-09-23T19:18:54.292Z,11.27
2022-09-23T19:21:23.460Z,12.43
2022-09-23T19:23:52.955Z,8.97
2022-09-23T19:26:22.712Z,9.70
2022-09-23T19:28:51.312Z,8.30
2022-09-23T19:31:23.172Z,8.70
2022-09-23T19:33:56.948Z,8.03
2022-09-23T19:36:26.621Z,8.70
2022-09-23T19:38:55.366Z,8.90
2022-09-23T19:41:23.645Z,9.03
2022-09-23T19:43:53.658Z,8.70
2022-09-23T19:46:22.336Z,7.70
2022-09-23T19:48:50.789Z,8.03
2022-09-23T19:51:19.902Z,7.40
2022-09-23T19:53:47.693Z,7.60
2022-09-23T19:56:17.662Z,7.20
2022-09-23T19:58:47.191Z,7.80
2022-09-23T20:01:16.380Z,8.03
2022-09-23T20:03:44.961Z,7.70
2022-09-23T20:06:12.980Z,8.60
2022-09-23T20:08:43.516Z,8.20
2022-09-23T20:11:13.330Z,7.53
2022-09-23T20:13:42.504Z,8.43
2022-09-23T20:16:12.157Z,8.23
2022-09-23T20:18:40.164Z,9.57
2022-09-23T20:21:09.717Z,11.60
2022-09-23T20:23:37.709Z,12.97
2022-09-23T20:26:25.539Z,10.93
2022-09-23T20:28:53.840Z,10.20
2022-09-23T20:31:22.253Z,9.33
2022-09-23T20:33:51.810Z,7.53
2022-09-23T20:36:19.738Z,6.90
2022-09-23T20:38:47.511Z,7.20
2022-09-23T20:41:17.174Z,7.40
2022-09-23T20:43:44.912Z,7.30
2022-09-23T20:46:15.188Z,7.40
2022-09-23T20:48:43.201Z,7.53
2022-09-23T20:51:11.207Z,7.57
2022-09-23T20:53:38.992Z,6.70
2022-09-23T20:56:07.406Z,8.40
2022-09-23T20:58:37.189Z,8.10
2022-09-23T21:01:10.605Z,7.63
2022-09-23T21:03:40.501Z,7.33
2022-09-23T21:06:10.314Z,7.73
2022-09-23T21:08:39.292Z,6.77
2022-09-23T21:11:09.130Z,7.23
2022-09-23T21:13:38.207Z,6.53
2022-09-23T21:16:08.086Z,7.00
2022-09-23T21:18:37.100Z,6.47
2022-09-23T21:21:06.345Z,5.63
2022-09-23T21:23:35.429Z,6.40
2022-09-23T21:26:03.456Z,7.03
2022-09-23T21:28:32.867Z,6.67
2022-09-23T21:31:02.939Z,6.77
2022-09-23T21:33:31.357Z,7.27
2022-09-23T21:36:03.396Z,6.60
2022-09-23T21:38:31.395Z,7.80
2022-09-23T21:40:59.953Z,7.67
2022-09-23T21:43:32.390Z,7.03
2022-09-23T21:46:02.979Z,7.40
2022-09-23T21:48:32.050Z,7.20
2022-09-23T21:51:01.455Z,7.40
2022-09-23T21:53:31.114Z,7.53
2022-09-23T21:56:03.818Z,7.30
2022-09-23T21:58:32.304Z,8.30
2022-09-23T22:01:01.094Z,7.60
2022-09-23T22:03:30.395Z,8.10
2022-09-23T22:06:06.592Z,7.20
2022-09-23T22:08:36.872Z,6.70
2022-09-23T22:11:06.983Z,6.70
2022-09-23T22:13:35.118Z,6.33
2022-09-23T22:16:05.066Z,6.90
2022-09-23T22:18:34.238Z,6.90
2022-09-23T22:21:01.960Z,6.70
2022-09-23T22:23:29.719Z,6.17
2022-09-23T22:26:02.992Z,6.73
2022-09-23T22:28:50.631Z,6.67
2022-09-23T22:31:36.319Z,6.00
2022-09-23T22:34:05.463Z,5.60
2022-09-23T22:36:33.292Z,6.80
2022-09-23T22:39:02.929Z,6.00
2022-09-23T22:41:31.391Z,6.10
2022-09-23T22:44:00.435Z,6.37
2022-09-23T22:46:28.739Z,6.43
2022-09-23T22:48:56.613Z,5.97
2022-09-23T22:51:26.292Z,5.27
2022-09-23T22:53:54.440Z,6.37
2022-09-23T22:56:22.243Z,6.40
2022-09-23T22:58:50.057Z,5.87
2022-09-23T23:01:17.983Z,6.27
2022-09-23T23:03:46.039Z,6.07
2022-09-23T23:06:13.879Z,5.43
2022-09-23T23:08:42.986Z,6.00
2022-09-23T23:11:10.920Z,5.83
2022-09-23T23:13:41.892Z,6.40
2022-09-23T23:16:11.605Z,6.30
2022-09-23T23:18:41.634Z,6.57
2022-09-23T23:21:10.982Z,6.10
2022-09-23T23:23:39.763Z,6.63
2022-09-23T23:26:10.735Z,6.07
2022-09-23T23:28:38.782Z,6.73
2022-09-23T23:31:07.535Z,6.50
2022-09-23T23:33:35.780Z,5.80
2022-09-23T23:36:04.052Z,6.60
2022-09-23T23:38:32.233Z,6.53
2022-09-23T23:41:02.923Z,6.67
2022-09-23T23:43:32.121Z,6.47
2022-09-23T23:46:00.661Z,6.43
2022-09-23T23:48:29.741Z,6.47
2022-09-23T23:50:59.376Z,7.30
2022-09-23T23:53:31.243Z,6.67
2022-09-23T23:56:01.832Z,6.77
2022-09-23T23:58:30.118Z,7.03
